»·PEaware :: SKY123 KDLS-KMMV

SKY123 :: KDLS-KMMV

FLIGHT INFORMATION

Flight Status: Arrived
Operator:
Sky High Charters
More flights by this operator :: More flights under this callsign
Pilot: Napoleon Ma Jr J. (21170)
Aircraft: CESSNA 172 SKYHAWK
(C172)
More flights by this aircraft type
Origin: KDLS Columbia Gorge Regl/The Dalle
United States
Destination: KMMV McMinnville Mun
United States
More flights between these airports :: More routes between these airports
Route: +DALLS1 LTJ V112 BTG V287 UBG
File this flight plan on PilotEdge
Remarks: SCENARIO #5
Altitude:
(Current/Filed)
8,000ft
Speed:
(Current/Filed)
115kts
Departed: 11-Jan-19 03:54 PM
Arrived: 11-Jan-19 05:21 PM
Distance/Time
Traveled:
87nm/1:27
Distance/Time
To Go:
Arrived

Flight Plot

Page will automatically refresh every two minutes.

Flight plan parsing failed; only flown route is shown


Map Options




Map Legend


Flown Route
Filed Route
Departure Airport
Arrival Airport
Navaid (VOR, NDB)
Fix

Horizontal Profiles

Position Reports

Time Latitude Longitude Heading Altitude Ground
Speed
11-Jan-19 15:43 45.618968 -121.173380 106 219ft 0kts
11-Jan-19 15:44 45.618968 -121.173380 106 219ft 0kts
11-Jan-19 15:45 45.618968 -121.173380 106 219ft 0kts
11-Jan-19 15:46 45.618968 -121.173380 106 219ft 0kts
11-Jan-19 15:47 45.618968 -121.173380 106 219ft 0kts
11-Jan-19 15:48 45.619047 -121.173030 47 219ft 0kts
11-Jan-19 15:49 45.619284 -121.175239 268 215ft 5kts
11-Jan-19 15:51 45.620104 -121.176949 308 213ft 0kts
11-Jan-19 15:52 45.620104 -121.176949 308 213ft 0kts
11-Jan-19 15:53 45.620545 -121.177749 316 211ft 8kts
11-Jan-19 15:54 45.621009 -121.161199 90 580ft 68kts
11-Jan-19 15:55 45.609938 -121.138574 134 1401ft 75kts
11-Jan-19 15:56 45.590619 -121.123862 176 2138ft 86kts
11-Jan-19 15:57 45.566793 -121.125435 179 2876ft 86kts
11-Jan-19 15:58 45.543517 -121.128619 178 3575ft 82kts
11-Jan-19 15:59 45.522003 -121.129375 122 4131ft 76kts
11-Jan-19 16:00 45.536778 -121.120917 349 4628ft 90kts
11-Jan-19 16:01 45.563094 -121.125845 356 5151ft 93kts
11-Jan-19 16:02 45.589831 -121.128338 11 5676ft 93kts
11-Jan-19 16:03 45.614207 -121.123546 18 6126ft 87kts
11-Jan-19 16:04 45.638924 -121.117524 10 6509ft 95kts
11-Jan-19 16:05 45.665014 -121.111825 18 6911ft 92kts
11-Jan-19 16:06 45.691237 -121.105825 17 7279ft 97kts
11-Jan-19 16:07 45.718385 -121.100154 28 7665ft 97kts
11-Jan-19 16:08 45.725387 -121.069233 90 8014ft 87kts
11-Jan-19 16:09 45.718924 -121.038528 184 7995ft 89kts
11-Jan-19 16:09 45.707748 -121.064211 272 8017ft 107kts
11-Jan-19 16:10 45.714436 -121.106973 275 8022ft 108kts
11-Jan-19 16:11 45.714876 -121.149758 266 8019ft 108kts
11-Jan-19 16:13 45.717457 -121.200016 263 8009ft 108kts
11-Jan-19 16:13 45.717677 -121.235884 263 8017ft 108kts
11-Jan-19 16:14 45.719200 -121.278829 269 8021ft 108kts
11-Jan-19 16:15 45.719501 -121.321749 259 8017ft 107kts
11-Jan-19 16:16 45.721785 -121.365591 271 8000ft 111kts
11-Jan-19 16:17 45.724920 -121.409214 267 8001ft 109kts
11-Jan-19 16:18 45.725717 -121.453091 264 8001ft 110kts
11-Jan-19 16:19 45.726304 -121.496640 264 8001ft 109kts
11-Jan-19 16:20 45.726868 -121.540483 264 8001ft 109kts
11-Jan-19 16:21 45.727397 -121.584250 264 8001ft 109kts
11-Jan-19 16:22 45.728632 -121.627337 275 8101ft 102kts
11-Jan-19 16:23 45.730862 -121.665843 264 8224ft 100kts
11-Jan-19 16:24 45.730552 -121.707599 259 8222ft 106kts
11-Jan-19 16:25 45.729940 -121.751162 262 8180ft 111kts
11-Jan-19 16:26 45.730532 -121.795797 263 8117ft 112kts
11-Jan-19 16:27 45.732074 -121.839661 262 8090ft 109kts
11-Jan-19 16:28 45.733585 -121.883566 257 8045ft 112kts
11-Jan-19 16:29 45.732573 -121.927792 258 8045ft 110kts
11-Jan-19 16:30 45.735558 -121.973064 266 8009ft 112kts
11-Jan-19 16:31 45.738961 -122.017011 265 8009ft 109kts
11-Jan-19 16:32 45.741981 -122.060247 262 8011ft 109kts
11-Jan-19 16:33 45.743691 -122.104170 260 8010ft 110kts
11-Jan-19 16:34 45.744095 -122.148372 258 8011ft 111kts
11-Jan-19 16:35 45.743877 -122.192519 259 8013ft 112kts
11-Jan-19 16:36 45.744503 -122.237234 260 8014ft 112kts
11-Jan-19 16:37 45.745001 -122.282259 260 8010ft 112kts
11-Jan-19 16:38 45.745443 -122.326878 260 8011ft 111kts
11-Jan-19 16:39 45.746159 -122.371255 261 8012ft 112kts
11-Jan-19 16:40 45.746941 -122.416105 261 8009ft 111kts
11-Jan-19 16:41 45.746979 -122.460142 258 8009ft 110kts
11-Jan-19 16:42 45.746591 -122.504021 261 8007ft 110kts
11-Jan-19 16:43 45.746981 -122.547777 264 8005ft 109kts
11-Jan-19 16:44 45.747817 -122.591041 261 8004ft 107kts
11-Jan-19 16:45 45.731161 -122.613948 181 8002ft 86kts
11-Jan-19 16:46 45.709438 -122.628811 211 8002ft 91kts
11-Jan-19 16:47 45.689531 -122.651734 205 8001ft 90kts
11-Jan-19 16:48 45.668448 -122.671276 205 8000ft 90kts
11-Jan-19 16:49 45.648019 -122.692090 209 8000ft 90kts
11-Jan-19 16:50 45.627638 -122.712661 206 8000ft 90kts
11-Jan-19 16:51 45.606772 -122.732709 205 8000ft 90kts
11-Jan-19 16:52 45.585724 -122.753003 205 8000ft 91kts
11-Jan-19 16:53 45.564933 -122.773615 207 7999ft 91kts
11-Jan-19 16:54 45.544454 -122.795759 209 7983ft 94kts
11-Jan-19 16:55 45.519897 -122.821034 207 7323ft 118kts
11-Jan-19 16:56 45.492286 -122.847742 207 6320ft 119kts
11-Jan-19 16:57 45.465786 -122.873121 207 5719ft 113kts
11-Jan-19 16:58 45.439279 -122.897304 206 5217ft 113kts
11-Jan-19 16:59 45.412903 -122.922811 210 4757ft 112kts
11-Jan-19 17:00 45.387564 -122.946161 211 4471ft 107kts
11-Jan-19 17:01 45.362129 -122.969799 214 4138ft 116kts
11-Jan-19 17:02 45.335554 -122.994723 204 3950ft 113kts
11-Jan-19 17:03 45.310823 -123.020250 212 3587ft 108kts
11-Jan-19 17:04 45.286641 -123.044995 219 3495ft 107kts
11-Jan-19 17:05 45.262249 -123.068820 219 3490ft 108kts
11-Jan-19 17:06 45.237962 -123.092780 224 3509ft 105kts
11-Jan-19 17:07 45.214451 -123.117419 227 3508ft 105kts
11-Jan-19 17:08 45.190471 -123.141794 221 3492ft 106kts
11-Jan-19 17:09 45.166359 -123.165832 221 3500ft 105kts
11-Jan-19 17:10 45.142083 -123.188964 220 3505ft 105kts
11-Jan-19 17:11 45.117607 -123.211667 217 3499ft 107kts
11-Jan-19 17:12 45.101668 -123.244395 244 3493ft 101kts
11-Jan-19 17:13 45.079709 -123.260404 141 3492ft 116kts
11-Jan-19 17:14 45.091475 -123.232293 19 3064ft 103kts
11-Jan-19 17:15 45.114864 -123.211791 33 2474ft 95kts
11-Jan-19 17:16 45.135704 -123.191690 28 1817ft 89kts
11-Jan-19 17:17 45.156310 -123.178407 345 1142ft 71kts
11-Jan-19 17:18 45.172294 -123.178153 22 691ft 59kts
11-Jan-19 17:19 45.184613 -123.163553 43 419ft 62kts
11-Jan-19 17:20 45.193782 -123.143538 56 147ft 40kts
11-Jan-19 17:21 45.196963 -123.137413 315 151ft 5kts
11-Jan-19 17:22 45.197475 -123.137942 327 151ft 0kts
11-Jan-19 17:23 45.198625 -123.137425 326 151ft 7kts
11-Jan-19 17:24 45.198809 -123.137594 327 151ft 0kts
11-Jan-19 17:25 45.198809 -123.137594 327 151ft 0kts
11-Jan-19 17:26 45.198809 -123.137594 327 151ft 0kts
11-Jan-19 17:27 45.198809 -123.137594 327 151ft 0kts
11-Jan-19 17:28 45.198809 -123.137594 327 151ft 0kts
11-Jan-19 17:29 45.198809 -123.137594 327 151ft 0kts
11-Jan-19 17:30 45.198809 -123.137594 327 151ft 0kts
11-Jan-19 17:31 45.198809 -123.137594 327 151ft 0kts
11-Jan-19 17:32 45.198809 -123.137594 327 151ft 0kts
11-Jan-19 17:33 45.198809 -123.137594 327 151ft 0kts
11-Jan-19 17:34 45.198809 -123.137594 327 151ft 0kts

Navigation Log

Ident Type
Flight plan parsing failed, navigation log unavailable